createdAt,value
2023-04-27T00:00:28.508Z,100538.97
2023-04-27T00:03:16.407Z,100543.40
2023-04-27T00:05:45.279Z,100543.69
2023-04-27T00:08:13.925Z,100543.20
2023-04-27T00:10:42.544Z,100544.66
2023-04-27T00:13:11.218Z,100546.25
2023-04-27T00:15:39.780Z,100548.91
2023-04-27T00:18:08.375Z,100553.22
2023-04-27T00:20:36.874Z,100556.21
2023-04-27T00:23:05.227Z,100553.17
2023-04-27T00:25:33.999Z,100552.73
2023-04-27T00:28:02.701Z,100547.48
2023-04-27T00:30:32.531Z,100547.84
2023-04-27T00:33:02.708Z,100544.79
2023-04-27T00:35:33.114Z,100550.33
2023-04-27T00:38:01.648Z,100547.94
2023-04-27T00:40:30.703Z,100547.69
2023-04-27T00:42:59.139Z,100544.30
2023-04-27T00:45:27.704Z,100544.95
2023-04-27T00:47:57.175Z,100545.02
2023-04-27T00:50:30.017Z,100547.75
2023-04-27T00:52:59.085Z,100550.21
2023-04-27T00:55:27.476Z,100547.97
2023-04-27T00:57:57.081Z,100551.52
2023-04-27T01:00:25.971Z,100549.39
2023-04-27T01:02:56.628Z,100551.31
2023-04-27T01:05:26.616Z,100549.48
2023-04-27T01:07:55.818Z,100552.16
2023-04-27T01:10:24.608Z,100553.27
2023-04-27T01:12:53.507Z,100552.81
2023-04-27T01:15:21.987Z,100554.45
2023-04-27T01:17:58.220Z,100556.52
2023-04-27T01:20:30.522Z,100553.89
2023-04-27T01:23:00.129Z,100557.09
2023-04-27T01:25:28.497Z,100563.52
2023-04-27T01:27:57.095Z,100560.04
2023-04-27T01:30:26.455Z,100563.88
2023-04-27T01:32:55.083Z,100565.95
2023-04-27T01:35:23.550Z,100564.41
2023-04-27T01:37:52.653Z,100567.63
2023-04-27T01:40:21.441Z,100568.09
2023-04-27T01:42:49.818Z,100564.24
2023-04-27T01:45:18.469Z,100563.65
2023-04-27T01:47:47.054Z,100562.50
2023-04-27T01:50:15.675Z,100566.73
2023-04-27T01:52:44.262Z,100562.66
2023-04-27T01:55:12.753Z,100563.60
2023-04-27T01:57:41.323Z,100564.86
2023-04-27T02:00:11.039Z,100563.50
2023-04-27T02:02:53.833Z,100569.73
2023-04-27T02:05:24.783Z,100570.45
2023-04-27T02:07:54.408Z,100570.83
2023-04-27T02:10:25.627Z,100573.09
2023-04-27T02:12:57.509Z,100577.04
2023-04-27T02:15:26.210Z,100579.40
2023-04-27T02:17:56.108Z,100577.48
2023-04-27T02:20:25.218Z,100580.42
2023-04-27T02:22:55.950Z,100580.64
2023-04-27T02:25:28.190Z,100587.27
2023-04-27T02:27:57.354Z,100589.70
2023-04-27T02:30:26.820Z,100588.89
2023-04-27T02:33:01.027Z,100590.35
2023-04-27T02:35:29.675Z,100593.14
2023-04-27T02:38:01.531Z,100593.38
2023-04-27T02:40:30.104Z,100592.60
2023-04-27T02:42:59.158Z,100594.21
2023-04-27T02:45:28.877Z,100591.02
2023-04-27T02:47:57.504Z,100588.64
2023-04-27T02:50:26.146Z,100593.90
2023-04-27T02:52:55.838Z,100594.98
2023-04-27T02:55:24.132Z,100599.23
2023-04-27T02:57:53.304Z,100596.94
2023-04-27T03:00:22.196Z,100600.95
2023-04-27T03:02:51.270Z,100606.59
2023-04-27T03:05:20.104Z,100610.95
2023-04-27T03:07:48.991Z,100615.07
2023-04-27T03:10:17.677Z,100619.27
2023-04-27T03:12:46.261Z,100626.46
2023-04-27T03:15:14.754Z,100628.52
2023-04-27T03:17:43.390Z,100637.05
2023-04-27T03:20:12.543Z,100640.67
2023-04-27T03:22:41.215Z,100642.41
2023-04-27T03:25:10.414Z,100643.36
2023-04-27T03:27:40.744Z,100647.69
2023-04-27T03:30:10.509Z,100648.71
2023-04-27T03:32:38.965Z,100650.17
2023-04-27T03:35:08.262Z,100648.13
2023-04-27T03:37:36.822Z,100654.14
2023-04-27T03:40:07.732Z,100659.38
2023-04-27T03:42:36.450Z,100665.88
2023-04-27T03:45:06.772Z,100672.09
2023-04-27T03:47:35.909Z,100679.34
2023-04-27T03:50:04.859Z,100682.77
2023-04-27T03:52:34.676Z,100684.70
2023-04-27T03:55:03.931Z,100692.81
2023-04-27T03:57:32.213Z,100690.45
2023-04-27T04:00:01.050Z,100697.14
2023-04-27T04:02:29.826Z,100697.38
2023-04-27T04:04:59.404Z,100704.91
2023-04-27T04:07:28.155Z,100706.38
2023-04-27T04:09:56.919Z,100711.08
2023-04-27T04:12:25.599Z,100717.05
2023-04-27T04:14:54.195Z,100718.23
2023-04-27T04:17:23.155Z,100722.96
2023-04-27T04:19:51.729Z,100727.87
2023-04-27T04:22:20.039Z,100731.39
2023-04-27T04:24:48.525Z,100738.40
2023-04-27T04:27:17.826Z,100744.23
2023-04-27T04:29:46.414Z,100747.41
2023-04-27T04:32:18.273Z,100751.23
2023-04-27T04:34:53.715Z,100758.45
2023-04-27T04:37:23.528Z,100763.82
2023-04-27T04:39:52.509Z,100763.95
2023-04-27T04:42:21.419Z,100765.95
2023-04-27T04:44:50.208Z,100767.57
2023-04-27T04:47:19.308Z,100770.42
2023-04-27T04:49:47.884Z,100772.73
2023-04-27T04:52:16.854Z,100780.01
2023-04-27T04:54:45.266Z,100780.67
2023-04-27T04:57:13.844Z,100780.84
2023-04-27T04:59:42.839Z,100779.74
2023-04-27T05:02:13.323Z,100780.61
2023-04-27T05:04:42.099Z,100786.29
2023-04-27T05:07:14.748Z,100791.02
2023-04-27T05:09:44.245Z,100790.52
2023-04-27T05:12:13.035Z,100796.03
2023-04-27T05:14:41.920Z,100797.02
2023-04-27T05:17:10.717Z,100796.84
2023-04-27T05:19:39.106Z,100794.59
2023-04-27T05:22:07.581Z,100797.63
2023-04-27T05:24:36.265Z,100796.84
2023-04-27T05:27:04.745Z,100798.58
2023-04-27T05:29:33.225Z,100797.22
2023-04-27T05:32:01.947Z,100796.33
2023-04-27T05:34:30.494Z,100801.21
2023-04-27T05:36:58.979Z,100805.25
2023-04-27T05:39:28.181Z,100803.68
2023-04-27T05:41:57.695Z,100802.19
2023-04-27T05:44:28.829Z,100803.39
2023-04-27T05:46:57.412Z,100807.30
2023-04-27T05:49:26.060Z,100804.07
2023-04-27T05:51:54.588Z,100803.22
2023-04-27T05:54:23.008Z,100802.66
2023-04-27T05:56:51.547Z,100802.05
2023-04-27T05:59:20.298Z,100805.48
2023-04-27T06:01:48.994Z,100811.02
2023-04-27T06:04:17.847Z,100810.61
2023-04-27T06:06:46.707Z,100807.65
2023-04-27T06:09:15.356Z,100808.59
2023-04-27T06:11:44.061Z,100804.75
2023-04-27T06:14:13.999Z,100806.63
2023-04-27T06:16:42.682Z,100803.73
2023-04-27T06:19:11.825Z,100804.13
2023-04-27T06:21:41.181Z,100807.50
2023-04-27T06:24:09.599Z,100809.64
2023-04-27T06:26:38.254Z,100808.52
2023-04-27T06:29:08.541Z,100805.20
2023-04-27T06:31:37.211Z,100811.55
2023-04-27T06:34:06.924Z,100806.17
2023-04-27T06:36:35.303Z,100806.48
2023-04-27T06:39:03.794Z,100805.62
2023-04-27T06:41:34.093Z,100809.44
2023-04-27T06:44:02.540Z,100805.59
2023-04-27T06:46:31.329Z,100807.36
2023-04-27T06:48:59.914Z,100810.63
2023-04-27T06:51:28.711Z,100814.47
2023-04-27T06:53:57.488Z,100811.92
2023-04-27T06:57:25.675Z,100813.52
2023-04-27T07:00:54.181Z,100812.61
2023-04-27T07:04:22.644Z,100813.04
2023-04-27T07:07:51.631Z,100822.08
2023-04-27T07:10:56.560Z,100820.85
2023-04-27T07:14:24.771Z,100820.59
2023-04-27T07:17:56.833Z,100822.10
2023-04-27T07:21:25.417Z,100814.45
2023-04-27T07:24:53.552Z,100815.39
2023-04-27T07:28:27.108Z,100814.41
2023-04-27T07:31:55.400Z,100819.08
2023-04-27T07:35:23.565Z,100815.70
2023-04-27T07:38:51.607Z,100812.67
2023-04-27T07:42:19.855Z,100810.70
2023-04-27T07:45:54.019Z,100810.93
2023-04-27T07:49:03.021Z,100814.19
2023-04-27T07:51:32.313Z,100814.44
2023-04-27T07:54:02.552Z,100819.66
2023-04-27T07:56:31.321Z,100822.48
2023-04-27T07:58:59.805Z,100827.85
2023-04-27T08:01:28.298Z,100829.19
2023-04-27T08:03:57.293Z,100829.17
2023-04-27T08:06:26.375Z,100828.10
2023-04-27T08:08:58.550Z,100830.73
2023-04-27T08:11:27.440Z,100830.10
2023-04-27T08:13:56.228Z,100834.31
2023-04-27T08:16:24.951Z,100832.27
2023-04-27T08:18:53.705Z,100830.91
2023-04-27T08:21:22.290Z,100832.80
2023-04-27T08:23:51.066Z,100833.93
2023-04-27T08:26:19.570Z,100838.16
2023-04-27T08:28:49.654Z,100840.09
2023-04-27T08:31:18.404Z,100845.55
2023-04-27T08:33:47.371Z,100842.59
2023-04-27T08:36:15.745Z,100842.31
2023-04-27T08:38:44.849Z,100843.10
2023-04-27T08:41:21.941Z,100840.67
2023-04-27T08:43:53.718Z,100841.45
2023-04-27T08:46:24.159Z,100841.70
2023-04-27T08:48:54.509Z,100838.42
2023-04-27T08:51:24.399Z,100837.33
2023-04-27T08:53:55.370Z,100837.05
2023-04-27T08:56:25.836Z,100838.48
2023-04-27T08:58:56.638Z,100835.98
2023-04-27T09:01:26.423Z,100837.05
2023-04-27T09:04:00.460Z,100831.13
2023-04-27T09:07:28.896Z,100830.21
2023-04-27T09:10:04.744Z,100823.54
2023-04-27T09:12:33.246Z,100824.52
2023-04-27T09:16:06.949Z,100820.67
2023-04-27T09:19:35.224Z,100812.02
2023-04-27T09:23:07.183Z,100799.54
2023-04-27T09:30:32.831Z,100797.49
2023-04-27T09:33:02.188Z,100794.27
2023-04-27T09:36:30.625Z,100795.28
2023-04-27T09:40:02.707Z,100796.42
2023-04-27T09:43:31.179Z,100789.36
2023-04-27T09:46:59.274Z,100787.84
2023-04-27T09:49:31.538Z,100786.89
2023-04-27T09:52:59.625Z,100782.94
2023-04-27T09:56:08.306Z,100778.77
2023-04-27T09:59:02.585Z,100773.56
2023-04-27T10:02:33.108Z,100770.06
2023-04-27T10:06:04.789Z,100763.40
2023-04-27T10:08:52.448Z,100760.17
2023-04-27T10:12:20.600Z,100759.61
2023-04-27T10:14:57.525Z,100760.73
2023-04-27T10:18:29.774Z,100760.61
2023-04-27T10:21:12.955Z,100761.47
2023-04-27T10:23:52.009Z,100761.75
2023-04-27T10:27:26.671Z,100763.34
2023-04-27T10:30:55.028Z,100761.31
2023-04-27T10:34:28.657Z,100759.70
2023-04-27T10:37:08.882Z,100768.77
2023-04-27T10:40:37.346Z,100766.94
2023-04-27T10:43:16.483Z,100763.80
2023-04-27T10:46:47.192Z,100767.16
2023-04-27T10:49:17.093Z,100766.86
2023-04-27T10:51:47.120Z,100768.16
2023-04-27T10:55:15.479Z,100766.30
2023-04-27T10:58:48.648Z,100760.67
2023-04-27T11:01:25.625Z,100761.90
2023-04-27T11:04:56.855Z,100764.54
2023-04-27T11:08:29.766Z,100758.60
2023-04-27T11:11:57.899Z,100760.16
2023-04-27T11:15:25.974Z,100753.86
2023-04-27T11:18:05.124Z,100757.73
2023-04-27T11:20:48.967Z,100757.14
2023-04-27T11:23:29.157Z,100754.23
2023-04-27T11:26:08.908Z,100753.74
2023-04-27T11:28:38.004Z,100750.43
2023-04-27T11:31:07.443Z,100748.23
2023-04-27T11:33:36.521Z,100747.88
2023-04-27T11:37:17.432Z,100743.60
2023-04-27T11:40:47.175Z,100748.56
2023-04-27T11:43:15.876Z,100745.30
2023-04-27T11:45:47.714Z,100750.27
2023-04-27T11:48:16.953Z,100750.45
2023-04-27T11:50:49.591Z,100749.95
2023-04-27T11:53:18.961Z,100746.83
2023-04-27T11:55:52.741Z,100748.39
2023-04-27T11:58:21.565Z,100751.45
2023-04-27T12:00:50.118Z,100752.74
2023-04-27T12:03:19.038Z,100751.95
2023-04-27T12:05:51.723Z,100750.86
2023-04-27T12:08:20.906Z,100752.28
2023-04-27T12:10:49.577Z,100746.47
2023-04-27T12:13:18.058Z,100748.17
2023-04-27T12:15:46.765Z,100750.37
2023-04-27T12:18:15.173Z,100749.86
2023-04-27T12:20:43.771Z,100748.23
2023-04-27T12:23:12.207Z,100751.77
2023-04-27T12:25:41.498Z,100753.70
2023-04-27T12:28:26.870Z,100754.20
2023-04-27T12:30:55.480Z,100754.15
2023-04-27T12:33:24.013Z,100749.66
2023-04-27T12:35:52.525Z,100757.33
2023-04-27T12:38:22.755Z,100758.20
2023-04-27T12:40:51.554Z,100764.67
2023-04-27T12:43:19.917Z,100767.70
2023-04-27T12:45:48.927Z,100775.56
2023-04-27T12:48:17.769Z,100769.52
2023-04-27T12:50:47.521Z,100768.11
2023-04-27T12:53:16.428Z,100768.79
2023-04-27T12:55:45.195Z,100768.23
2023-04-27T12:58:13.996Z,100766.27
2023-04-27T13:00:42.878Z,100769.48
2023-04-27T13:03:11.617Z,100774.17
2023-04-27T13:05:40.634Z,100779.39
2023-04-27T13:08:09.447Z,100782.52
2023-04-27T13:10:38.337Z,100804.73
2023-04-27T13:13:08.153Z,100794.95
2023-04-27T13:15:37.801Z,100785.52
2023-04-27T13:18:06.905Z,100781.41
2023-04-27T13:20:36.474Z,100776.89
2023-04-27T13:23:06.057Z,100776.20
2023-04-27T13:25:34.659Z,100770.14
2023-04-27T13:28:03.040Z,100768.80
2023-04-27T13:30:32.616Z,100766.22
2023-04-27T13:33:14.179Z,100766.34
2023-04-27T13:35:47.640Z,100760.95
2023-04-27T13:38:16.218Z,100760.77
2023-04-27T13:40:44.707Z,100755.05
2023-04-27T13:43:13.373Z,100755.60
2023-04-27T13:45:42.805Z,100754.42
2023-04-27T13:48:29.159Z,100753.47
2023-04-27T13:51:35.987Z,100755.15
2023-04-27T13:54:05.077Z,100756.70
2023-04-27T13:56:33.556Z,100755.32
2023-04-27T13:59:02.142Z,100760.05
2023-04-27T14:02:30.428Z,100758.14
2023-04-27T14:05:38.902Z,100755.41
2023-04-27T14:08:07.589Z,100754.85
2023-04-27T14:10:39.177Z,100756.79
2023-04-27T14:13:08.182Z,100756.66
2023-04-27T14:15:37.688Z,100756.05
2023-04-27T14:18:08.211Z,100754.73
2023-04-27T14:20:38.002Z,100758.84
2023-04-27T14:23:07.345Z,100756.94
2023-04-27T14:25:35.720Z,100759.55
2023-04-27T14:28:06.271Z,100761.46
2023-04-27T14:30:35.843Z,100761.80
2023-04-27T14:33:04.513Z,100765.66
2023-04-27T14:35:35.284Z,100764.02
2023-04-27T14:38:04.420Z,100767.41
2023-04-27T14:40:33.369Z,100767.17
2023-04-27T14:43:01.750Z,100768.61
2023-04-27T14:45:37.022Z,100776.39
2023-04-27T14:48:12.774Z,100776.67
2023-04-27T14:50:41.534Z,100779.36
2023-04-27T14:53:10.016Z,100781.61
2023-04-27T14:55:38.490Z,100777.35
2023-04-27T14:58:06.834Z,100776.15
2023-04-27T15:00:35.362Z,100779.30
2023-04-27T15:03:04.343Z,100775.71
2023-04-27T15:05:33.003Z,100774.44
2023-04-27T15:09:05.629Z,100775.06
2023-04-27T15:11:34.355Z,100779.34
2023-04-27T15:14:02.794Z,100775.34
2023-04-27T15:16:31.907Z,100775.13
2023-04-27T15:19:00.888Z,100778.52
2023-04-27T15:21:31.456Z,100775.01
2023-04-27T15:23:59.830Z,100768.73
2023-04-27T15:26:28.793Z,100773.16
2023-04-27T15:28:59.538Z,100768.79
2023-04-27T15:31:28.477Z,100769.54
2023-04-27T15:33:57.549Z,100774.76
2023-04-27T15:36:28.658Z,100775.05
2023-04-27T15:38:58.008Z,100778.61
2023-04-27T15:41:26.557Z,100780.38
2023-04-27T15:43:55.026Z,100783.31
2023-04-27T15:46:23.526Z,100786.21
2023-04-27T15:48:52.199Z,100789.27
2023-04-27T15:51:20.685Z,100792.29
2023-04-27T15:53:49.067Z,100795.61
2023-04-27T15:56:17.953Z,100794.42
2023-04-27T15:58:46.577Z,100797.06
2023-04-27T16:01:15.064Z,100801.15
2023-04-27T16:03:43.890Z,100801.52
2023-04-27T16:06:12.597Z,100806.27
2023-04-27T16:09:40.690Z,100806.91
2023-04-27T16:12:09.260Z,100814.66
2023-04-27T16:14:38.360Z,100815.39
2023-04-27T16:17:06.945Z,100820.14
2023-04-27T16:19:35.426Z,100829.34
2023-04-27T16:22:04.552Z,100835.05
2023-04-27T16:24:33.282Z,100835.39
2023-04-27T16:27:20.739Z,100842.83
2023-04-27T16:29:49.216Z,100849.69
2023-04-27T16:32:20.435Z,100857.76
2023-04-27T16:34:49.155Z,100857.95
2023-04-27T16:37:18.152Z,100864.42
2023-04-27T16:39:47.039Z,100858.00
2023-04-27T16:42:20.622Z,100858.50
2023-04-27T16:44:49.163Z,100864.38
2023-04-27T16:47:17.606Z,100865.08
2023-04-27T16:49:46.406Z,100866.48
2023-04-27T16:52:14.836Z,100870.86
2023-04-27T16:54:43.214Z,100874.02
2023-04-27T16:57:13.590Z,100879.84
2023-04-27T16:59:42.079Z,100880.80
2023-04-27T17:02:22.995Z,100881.61
2023-04-27T17:04:54.527Z,100887.11
2023-04-27T17:07:23.107Z,100888.39
2023-04-27T17:09:51.781Z,100891.77
2023-04-27T17:12:20.160Z,100888.52
2023-04-27T17:14:48.733Z,100887.60
2023-04-27T17:17:17.563Z,100887.29
2023-04-27T17:19:45.773Z,100886.48
2023-04-27T17:22:15.135Z,100885.25
2023-04-27T17:24:43.790Z,100890.80
2023-04-27T17:27:12.780Z,100897.13
2023-04-27T17:29:41.263Z,100904.05
2023-04-27T17:32:09.857Z,100910.46
2023-04-27T17:34:40.419Z,100910.30
2023-04-27T17:37:10.907Z,100912.70
2023-04-27T17:39:39.595Z,100917.20
2023-04-27T17:42:12.507Z,100921.33
2023-04-27T17:44:42.589Z,100924.18
2023-04-27T17:47:12.006Z,100930.41
2023-04-27T17:49:40.398Z,100928.05
2023-04-27T17:52:09.909Z,100933.48
2023-04-27T17:54:39.712Z,100937.05
2023-04-27T17:57:09.320Z,100938.80
2023-04-27T17:59:38.009Z,100946.41
2023-04-27T18:02:06.525Z,100946.39
2023-04-27T18:04:35.156Z,100956.81
2023-04-27T18:07:03.972Z,100959.85
2023-04-27T18:09:33.070Z,100956.81
2023-04-27T18:12:02.472Z,100967.06
2023-04-27T18:14:31.664Z,100970.60
2023-04-27T18:17:00.396Z,100978.34
2023-04-27T18:19:28.936Z,100982.11
2023-04-27T18:21:57.417Z,100984.96
2023-04-27T18:24:26.213Z,100991.89
2023-04-27T18:26:54.584Z,100994.98
2023-04-27T18:29:23.068Z,100998.30
2023-04-27T18:31:55.058Z,100999.05
2023-04-27T18:34:23.817Z,101007.67
2023-04-27T18:36:52.402Z,101004.60
2023-04-27T18:39:21.091Z,101007.46
2023-04-27T18:41:49.610Z,101011.45
2023-04-27T18:44:18.059Z,101017.64
2023-04-27T18:46:46.739Z,101024.39
2023-04-27T18:49:15.634Z,101030.11
2023-04-27T18:51:45.286Z,101034.81
2023-04-27T18:54:13.903Z,101034.89
2023-04-27T18:56:42.386Z,101035.30
2023-04-27T18:59:11.266Z,101040.20
2023-04-27T19:01:41.266Z,101041.48
2023-04-27T19:04:09.932Z,101049.05
2023-04-27T19:06:38.705Z,101053.98
2023-04-27T19:09:09.455Z,101060.10
2023-04-27T19:11:37.811Z,101067.98
2023-04-27T19:14:06.193Z,101069.92
2023-04-27T19:16:36.808Z,101075.23
2023-04-27T19:19:05.301Z,101079.42
2023-04-27T19:21:33.893Z,101084.02
2023-04-27T19:24:02.750Z,101086.39
2023-04-27T19:26:31.672Z,101085.55
2023-04-27T19:29:00.004Z,101091.48
2023-04-27T19:31:28.856Z,101093.61
2023-04-27T19:34:04.160Z,101094.36
2023-04-27T19:36:33.487Z,101101.92
2023-04-27T19:39:02.171Z,101107.49
2023-04-27T19:41:30.489Z,101112.20
2023-04-27T19:43:59.211Z,101116.42
2023-04-27T19:46:27.941Z,101120.73
2023-04-27T19:48:56.412Z,101123.31
2023-04-27T19:51:25.099Z,101126.80
2023-04-27T19:53:53.585Z,101127.96
2023-04-27T19:56:21.997Z,101134.67
2023-04-27T19:58:50.617Z,101142.76
2023-04-27T20:01:20.253Z,101143.50
2023-04-27T20:03:49.021Z,101149.88
2023-04-27T20:06:20.261Z,101150.59
2023-04-27T20:08:49.278Z,101152.85
2023-04-27T20:11:17.678Z,101153.63
2023-04-27T20:13:46.486Z,101151.60
2023-04-27T20:16:15.190Z,101150.26
2023-04-27T20:18:45.322Z,101150.73
2023-04-27T20:21:13.945Z,101147.50
2023-04-27T20:23:43.041Z,101151.58
2023-04-27T20:26:11.520Z,101151.80
2023-04-27T20:28:40.254Z,101152.71
2023-04-27T20:31:08.802Z,101153.86
2023-04-27T20:33:37.380Z,101154.27
2023-04-27T20:36:14.042Z,101151.41
2023-04-27T20:38:46.733Z,101153.00
2023-04-27T20:41:15.462Z,101150.11
2023-04-27T20:43:45.746Z,101149.31
2023-04-27T20:46:14.243Z,101146.57
2023-04-27T20:48:43.040Z,101150.83
2023-04-27T20:51:11.500Z,101151.27
2023-04-27T20:53:40.598Z,101153.39
2023-04-27T20:56:09.461Z,101156.01
2023-04-27T20:58:37.968Z,101156.95
2023-04-27T21:01:06.459Z,101155.35
2023-04-27T21:03:36.195Z,101160.52
2023-04-27T21:06:05.480Z,101167.87
2023-04-27T21:08:34.879Z,101173.64
2023-04-27T21:11:03.555Z,101171.43
2023-04-27T21:13:32.037Z,101174.61
2023-04-27T21:16:01.237Z,101175.31
2023-04-27T21:18:30.928Z,101174.89
2023-04-27T21:21:00.155Z,101179.89
2023-04-27T21:23:28.756Z,101182.62
2023-04-27T21:25:57.429Z,101186.86
2023-04-27T21:28:27.229Z,101188.23
2023-04-27T21:30:55.541Z,101188.17
2023-04-27T21:33:24.094Z,101190.77
2023-04-27T21:35:52.676Z,101191.27
2023-04-27T21:38:21.160Z,101188.30
2023-04-27T21:40:49.748Z,101190.34
2023-04-27T21:43:18.329Z,101190.93
2023-04-27T21:45:47.014Z,101191.23
2023-04-27T21:48:15.591Z,101194.41
2023-04-27T21:50:44.497Z,101196.27
2023-04-27T21:53:12.972Z,101194.23
2023-04-27T21:55:41.762Z,101191.27
2023-04-27T21:58:10.412Z,101192.11
2023-04-27T22:00:39.140Z,101195.27
2023-04-27T22:03:07.975Z,101193.33
2023-04-27T22:05:40.406Z,101196.04
2023-04-27T22:08:09.294Z,101201.85
2023-04-27T22:10:37.773Z,101203.33
2023-04-27T22:13:17.825Z,101209.68
2023-04-27T22:15:48.330Z,101208.77
2023-04-27T22:18:16.940Z,101206.73
2023-04-27T22:20:46.466Z,101209.97
2023-04-27T22:23:15.186Z,101213.33
2023-04-27T22:25:43.872Z,101215.60
2023-04-27T22:28:13.020Z,101217.25
2023-04-27T22:30:44.944Z,101219.08
2023-04-27T22:33:13.637Z,101217.86
2023-04-27T22:35:42.319Z,101218.15
2023-04-27T22:38:11.557Z,101218.84
2023-04-27T22:40:40.063Z,101216.95
2023-04-27T22:43:08.745Z,101218.64
2023-04-27T22:45:38.865Z,101220.61
2023-04-27T22:48:08.070Z,101216.98
2023-04-27T22:50:36.645Z,101214.61
2023-04-27T22:53:05.214Z,101212.83
2023-04-27T22:55:33.902Z,101212.55
2023-04-27T22:58:02.283Z,101209.34
2023-04-27T23:00:31.076Z,101209.02
2023-04-27T23:02:59.600Z,101207.20
2023-04-27T23:05:29.366Z,101207.73
2023-04-27T23:07:58.054Z,101205.36
2023-04-27T23:10:27.155Z,101197.52
2023-04-27T23:12:57.272Z,101200.77
2023-04-27T23:15:26.026Z,101203.38
2023-04-27T23:17:54.583Z,101200.27
2023-04-27T23:20:28.738Z,101199.15
2023-04-27T23:22:58.009Z,101197.77
2023-04-27T23:25:26.558Z,101199.40
2023-04-27T23:27:55.019Z,101198.61
2023-04-27T23:30:23.614Z,101200.32
2023-04-27T23:32:52.429Z,101200.30
2023-04-27T23:35:21.112Z,101202.05
2023-04-27T23:37:49.803Z,101200.60
2023-04-27T23:40:18.328Z,101204.45
2023-04-27T23:42:46.740Z,101200.71
2023-04-27T23:45:15.420Z,101205.87
2023-04-27T23:47:44.143Z,101207.06
2023-04-27T23:50:12.696Z,101206.70
2023-04-27T23:52:41.071Z,101207.50
2023-04-27T23:55:10.479Z,101211.61
2023-04-27T23:57:38.957Z,101209.75
